createdAt,value
2023-03-01T00:02:03.435Z,99831.34
2023-03-01T00:04:29.960Z,99831.44
2023-03-01T00:06:56.480Z,99837.78
2023-03-01T00:09:23.090Z,99834.41
2023-03-01T00:11:49.900Z,99848.53
2023-03-01T00:14:16.772Z,99846.81
2023-03-01T00:16:45.252Z,99837.56
2023-03-01T00:19:20.495Z,99840.00
2023-03-01T00:21:47.135Z,99845.16
2023-03-01T00:24:13.557Z,99848.78
2023-03-01T00:26:40.250Z,99851.56
2023-03-01T00:29:07.606Z,99851.66
2023-03-01T00:31:37.414Z,99857.91
2023-03-01T00:34:06.656Z,99857.97
2023-03-01T00:36:36.835Z,99845.94
2023-03-01T00:39:06.477Z,99849.28
2023-03-01T00:41:34.533Z,99850.41
2023-03-01T00:44:01.452Z,99853.09
2023-03-01T00:46:28.491Z,99852.25
2023-03-01T00:48:55.291Z,99860.88
2023-03-01T00:51:26.551Z,99867.22
2023-03-01T00:53:55.680Z,99871.75
2023-03-01T00:56:22.988Z,99864.34
2023-03-01T00:58:50.558Z,99866.03
2023-03-01T01:01:20.375Z,99876.31
2023-03-01T01:03:51.619Z,99880.78
2023-03-01T01:06:33.729Z,99870.84
2023-03-01T01:09:01.814Z,99878.88
2023-03-01T01:11:30.318Z,99875.66
2023-03-01T01:13:57.933Z,99873.47
2023-03-01T01:16:27.728Z,99876.91
2023-03-01T01:18:55.802Z,99875.16
2023-03-01T01:21:28.032Z,99876.59
2023-03-01T01:24:04.756Z,99872.19
2023-03-01T01:26:34.317Z,99870.00
2023-03-01T01:29:01.769Z,99859.09
2023-03-01T01:31:28.935Z,99855.19
2023-03-01T01:33:56.563Z,99850.31
2023-03-01T01:36:23.698Z,99831.25
2023-03-01T01:38:50.110Z,99822.97
2023-03-01T01:41:16.984Z,99812.31
2023-03-01T01:44:20.319Z,99807.56
2023-03-01T01:47:16.186Z,99799.16
2023-03-01T01:49:50.067Z,99793.81
2023-03-01T01:52:23.110Z,99791.53
2023-03-01T01:55:07.458Z,99774.69
2023-03-01T01:57:39.169Z,99781.97
2023-03-01T02:00:14.558Z,99770.47
2023-03-01T02:02:43.278Z,99751.66
2023-03-01T02:05:17.261Z,99752.97
2023-03-01T02:07:44.618Z,99744.72
2023-03-01T02:10:11.199Z,99732.94
2023-03-01T02:12:39.346Z,99732.75
2023-03-01T02:15:06.521Z,99716.84
2023-03-01T02:17:35.173Z,99710.63
2023-03-01T02:20:46.079Z,99698.53
2023-03-01T02:23:12.805Z,99670.03
2023-03-01T02:25:56.352Z,99663.47
2023-03-01T02:28:39.066Z,99639.38
2023-03-01T02:31:12.003Z,99613.38
2023-03-01T02:33:40.307Z,99598.28
2023-03-01T02:36:15.105Z,99601.84
2023-03-01T02:38:43.638Z,99607.28
2023-03-01T02:41:15.397Z,99580.78
2023-03-01T02:43:42.481Z,99576.66
2023-03-01T02:46:29.533Z,99572.38
2023-03-01T02:48:58.554Z,99594.81
2023-03-01T02:51:34.339Z,99597.22
2023-03-01T02:54:32.605Z,99605.06
2023-03-01T02:57:06.293Z,99627.69
2023-03-01T02:59:36.435Z,99632.03
2023-03-01T03:02:04.255Z,99618.59
2023-03-01T03:04:32.454Z,99618.31
2023-03-01T03:06:59.114Z,99607.47
2023-03-01T03:09:25.904Z,99606.09
2023-03-01T03:11:52.694Z,99608.22
2023-03-01T03:14:22.699Z,99619.41
2023-03-01T03:16:51.884Z,99623.94
2023-03-01T03:19:23.690Z,99625.59
2023-03-01T03:21:51.270Z,99620.66
2023-03-01T03:24:19.202Z,99635.25
2023-03-01T03:26:47.122Z,99631.59
2023-03-01T03:29:13.662Z,99635.06
2023-03-01T03:31:40.464Z,99634.94
2023-03-01T03:34:06.892Z,99645.84
2023-03-01T03:36:34.883Z,99636.88
2023-03-01T03:39:01.461Z,99623.22
2023-03-01T03:41:28.782Z,99624.69
2023-03-01T03:43:55.474Z,99618.31
2023-03-01T03:46:21.961Z,99608.47
2023-03-01T03:48:48.774Z,99613.59
2023-03-01T03:51:17.690Z,99602.38
2023-03-01T03:53:45.908Z,99607.41
2023-03-01T03:56:17.838Z,99601.13
2023-03-01T03:58:48.250Z,99607.09
2023-03-01T04:01:16.450Z,99601.44
2023-03-01T04:03:43.133Z,99591.69
2023-03-01T04:06:09.608Z,99588.03
2023-03-01T04:08:36.641Z,99585.19
2023-03-01T04:11:05.666Z,99567.53
2023-03-01T04:13:33.449Z,99564.50
2023-03-01T04:16:00.159Z,99562.69
2023-03-01T04:18:30.454Z,99557.25
2023-03-01T04:20:57.329Z,99551.91
2023-03-01T04:23:26.119Z,99546.53
2023-03-01T04:25:57.676Z,99544.03
2023-03-01T04:28:30.980Z,99551.28
2023-03-01T04:31:00.106Z,99558.63
2023-03-01T04:33:28.072Z,99558.53
2023-03-01T04:35:54.928Z,99559.25
2023-03-01T04:38:22.024Z,99557.78
2023-03-01T04:40:50.376Z,99565.44
2023-03-01T04:43:17.017Z,99556.53
2023-03-01T04:45:44.127Z,99551.91
2023-03-01T04:48:10.916Z,99543.06
2023-03-01T04:50:37.785Z,99546.22
2023-03-01T04:53:04.946Z,99539.31
2023-03-01T04:55:31.477Z,99543.91
2023-03-01T04:57:58.113Z,99546.22
2023-03-01T05:00:27.682Z,99530.97
2023-03-01T05:02:58.185Z,99506.09
2023-03-01T05:05:34.169Z,99491.81
2023-03-01T05:08:08.022Z,99458.94
2023-03-01T05:10:37.428Z,99456.41
2023-03-01T05:13:22.093Z,99445.47
2023-03-01T05:15:54.836Z,99454.47
2023-03-01T05:18:22.279Z,99435.84
2023-03-01T05:20:50.577Z,99434.19
2023-03-01T05:23:17.057Z,99434.91
2023-03-01T05:25:43.739Z,99425.75
2023-03-01T05:28:13.182Z,99420.50
2023-03-01T05:30:40.449Z,99421.69
2023-03-01T05:33:10.434Z,99424.63
2023-03-01T05:35:36.850Z,99434.81
2023-03-01T05:38:04.995Z,99431.81
2023-03-01T05:40:34.855Z,99421.53
2023-03-01T05:43:02.130Z,99416.47
2023-03-01T05:45:30.368Z,99417.88
2023-03-01T05:47:57.080Z,99416.28
2023-03-01T05:50:30.893Z,99409.16
2023-03-01T05:53:03.399Z,99407.97
2023-03-01T05:55:32.998Z,99410.38
2023-03-01T05:58:04.632Z,99407.88
2023-03-01T06:00:31.662Z,99404.50
2023-03-01T06:03:01.508Z,99407.03
2023-03-01T06:05:30.044Z,99409.16
2023-03-01T06:08:02.288Z,99400.44
2023-03-01T06:10:29.638Z,99408.66
2023-03-01T06:13:05.104Z,99409.50
2023-03-01T06:15:32.586Z,99394.84
2023-03-01T06:18:03.511Z,99393.31
2023-03-01T06:20:32.708Z,99410.81
2023-03-01T06:23:00.322Z,99405.56
2023-03-01T06:25:29.018Z,99409.88
2023-03-01T06:27:56.206Z,99416.19
2023-03-01T06:30:25.263Z,99399.47
2023-03-01T06:33:01.233Z,99405.78
2023-03-01T06:35:29.941Z,99404.72
2023-03-01T06:37:59.957Z,99409.50
2023-03-01T06:40:27.675Z,99401.63
2023-03-01T06:42:59.748Z,99410.94
2023-03-01T06:45:30.462Z,99407.88
2023-03-01T06:48:12.908Z,99410.81
2023-03-01T06:50:41.519Z,99393.22
2023-03-01T06:53:08.401Z,99398.56
2023-03-01T06:55:37.822Z,99399.81
2023-03-01T06:58:05.870Z,99382.84
2023-03-01T07:00:33.236Z,99386.44
2023-03-01T07:03:03.789Z,99370.00
2023-03-01T07:05:39.197Z,99373.84
2023-03-01T07:08:06.375Z,99368.09
2023-03-01T07:10:36.295Z,99363.41
2023-03-01T07:13:03.541Z,99353.13
2023-03-01T07:15:30.345Z,99355.41
2023-03-01T07:18:00.138Z,99354.44
2023-03-01T07:20:26.814Z,99350.63
2023-03-01T07:22:54.196Z,99343.06
2023-03-01T07:25:20.817Z,99342.81
2023-03-01T07:27:52.392Z,99338.75
2023-03-01T07:30:20.319Z,99332.84
2023-03-01T07:32:47.501Z,99326.72
2023-03-01T07:35:14.199Z,99324.13
2023-03-01T07:37:40.809Z,99320.75
2023-03-01T07:40:08.211Z,99314.81
2023-03-01T07:42:34.629Z,99305.69
2023-03-01T07:45:01.204Z,99303.66
2023-03-01T07:47:27.696Z,99295.22
2023-03-01T07:49:54.243Z,99301.78
2023-03-01T07:52:20.707Z,99298.63
2023-03-01T07:54:55.090Z,99295.44
2023-03-01T07:57:22.070Z,99290.34
2023-03-01T07:59:48.505Z,99282.41
2023-03-01T08:02:15.050Z,99279.69
2023-03-01T08:04:44.097Z,99272.38
2023-03-01T08:07:10.648Z,99277.03
2023-03-01T08:09:37.350Z,99274.47
2023-03-01T08:12:04.684Z,99276.56
2023-03-01T08:14:32.734Z,99279.34
2023-03-01T08:16:59.723Z,99274.63
2023-03-01T08:19:26.570Z,99278.03
2023-03-01T08:21:53.379Z,99275.09
2023-03-01T08:24:20.003Z,99271.78
2023-03-01T08:26:46.427Z,99263.06
2023-03-01T08:29:12.866Z,99262.47
2023-03-01T08:31:41.048Z,99266.06
2023-03-01T08:34:14.035Z,99263.28
2023-03-01T08:36:43.209Z,99260.16
2023-03-01T08:39:12.904Z,99267.53
2023-03-01T08:41:40.118Z,99276.38
2023-03-01T08:44:07.947Z,99263.22
2023-03-01T08:46:42.093Z,99256.69
2023-03-01T08:49:10.654Z,99262.94
2023-03-01T08:51:37.457Z,99258.75
2023-03-01T08:54:12.554Z,99259.25
2023-03-01T08:56:40.683Z,99255.09
2023-03-01T08:59:10.439Z,99255.63
2023-03-01T09:01:37.021Z,99251.19
2023-03-01T09:04:04.514Z,99247.22
2023-03-01T09:06:32.620Z,99240.72
2023-03-01T09:08:59.757Z,99231.44
2023-03-01T09:11:26.391Z,99236.38
2023-03-01T09:13:55.253Z,99222.63
2023-03-01T09:16:23.165Z,99212.31
2023-03-01T09:18:51.684Z,99213.09
2023-03-01T09:21:27.508Z,99212.16
2023-03-01T09:24:04.301Z,99215.34
2023-03-01T09:26:32.791Z,99221.00
2023-03-01T09:28:59.629Z,99219.19
2023-03-01T09:31:26.280Z,99216.00
2023-03-01T09:33:54.485Z,99216.75
2023-03-01T09:36:23.318Z,99214.63
2023-03-01T09:38:50.379Z,99211.53
2023-03-01T09:41:32.516Z,99221.34
2023-03-01T09:44:11.325Z,99219.56
2023-03-01T09:46:43.907Z,99205.75
2023-03-01T09:49:16.681Z,99205.81
2023-03-01T09:52:01.011Z,99200.03
2023-03-01T09:54:28.561Z,99194.97
2023-03-01T09:57:48.237Z,99201.44
2023-03-01T10:00:31.446Z,99183.81
2023-03-01T10:03:23.569Z,99183.19
2023-03-01T10:06:07.321Z,99184.97
2023-03-01T10:08:58.845Z,99192.00
2023-03-01T10:11:32.215Z,99181.81
2023-03-01T10:14:18.830Z,99181.78
2023-03-01T10:16:54.378Z,99169.44
2023-03-01T10:19:41.158Z,99163.09
2023-03-01T10:22:16.528Z,99157.19
2023-03-01T10:24:46.223Z,99158.09
2023-03-01T10:27:46.763Z,99149.00
2023-03-01T10:31:04.025Z,99149.69
2023-03-01T10:33:48.847Z,99155.50
2023-03-01T10:36:26.833Z,99151.25
2023-03-01T10:42:09.421Z,99155.06
2023-03-01T10:45:06.141Z,99146.91
2023-03-01T10:47:35.670Z,99139.00
2023-03-01T10:50:12.264Z,99131.06
2023-03-01T10:52:43.147Z,99138.53
2023-03-01T10:55:26.468Z,99134.88
2023-03-01T10:58:08.761Z,99133.53
2023-03-01T11:00:53.665Z,99126.41
2023-03-01T11:03:30.311Z,99119.28
2023-03-01T11:06:19.942Z,99109.47
2023-03-01T11:08:57.345Z,99108.66
2023-03-01T11:11:51.036Z,99102.75
2023-03-01T11:20:30.538Z,99092.78
2023-03-01T11:25:57.007Z,99086.03
2023-03-01T11:28:26.625Z,99084.03
2023-03-01T11:31:09.523Z,99077.91
2023-03-01T11:33:48.594Z,99065.91
2023-03-01T11:36:30.220Z,99061.56
2023-03-01T11:39:03.099Z,99052.44
2023-03-01T11:41:37.275Z,99057.72
2023-03-01T11:44:15.325Z,99051.56
2023-03-01T11:47:09.889Z,99051.03
2023-03-01T11:50:01.096Z,99049.09
2023-03-01T11:52:42.856Z,99049.28
2023-03-01T11:55:19.084Z,99050.25
2023-03-01T11:58:10.512Z,99038.50
2023-03-01T12:00:39.574Z,99041.69
2023-03-01T12:03:28.368Z,99037.34
2023-03-01T12:06:24.273Z,99026.44
2023-03-01T12:09:18.220Z,99017.72
2023-03-01T12:12:06.301Z,99020.81
2023-03-01T12:14:41.202Z,99005.44
2023-03-01T12:17:22.180Z,99004.72
2023-03-01T12:19:55.082Z,98992.72
2023-03-01T12:22:30.722Z,98986.25
2023-03-01T12:25:12.850Z,98987.50
2023-03-01T12:27:51.304Z,98987.81
2023-03-01T12:30:57.114Z,98986.16
2023-03-01T12:33:23.997Z,98984.84
2023-03-01T12:36:30.005Z,98975.03
2023-03-01T12:39:15.107Z,98959.13
2023-03-01T12:41:52.658Z,98956.38
2023-03-01T12:44:39.232Z,98945.94
2023-03-01T12:47:21.740Z,98950.69
2023-03-01T12:50:03.271Z,98944.84
2023-03-01T12:52:45.115Z,98944.63
2023-03-01T12:55:44.856Z,98933.47
2023-03-01T12:58:43.526Z,98930.72
2023-03-01T13:01:46.956Z,98922.31
2023-03-01T13:05:04.047Z,98920.00
2023-03-01T13:07:38.113Z,98921.94
2023-03-01T13:10:31.727Z,98921.09
2023-03-01T13:12:58.859Z,98922.31
2023-03-01T13:15:26.819Z,98919.44
2023-03-01T13:18:19.296Z,98924.44
2023-03-01T13:20:53.227Z,98921.13
2023-03-01T13:23:23.148Z,98929.41
2023-03-01T13:26:15.938Z,98929.19
2023-03-01T13:28:45.896Z,98917.97
2023-03-01T13:31:32.594Z,98921.03
2023-03-01T13:34:00.630Z,98907.03
2023-03-01T13:36:30.669Z,98901.53
2023-03-01T13:38:58.650Z,98897.31
2023-03-01T13:41:40.229Z,98909.44
2023-03-01T13:44:25.389Z,98903.09
2023-03-01T13:47:13.147Z,98899.53
2023-03-01T13:49:53.020Z,98899.25
2023-03-01T13:52:31.764Z,98906.72
2023-03-01T13:54:59.338Z,98891.81
2023-03-01T13:57:41.331Z,98890.88
2023-03-01T14:00:25.774Z,98871.41
2023-03-01T14:03:21.689Z,98892.25
2023-03-01T14:06:14.164Z,98887.53
2023-03-01T14:08:44.130Z,98888.13
2023-03-01T14:11:27.804Z,98892.72
2023-03-01T14:14:25.613Z,98892.19
2023-03-01T14:17:11.514Z,98906.47
2023-03-01T14:19:38.735Z,98912.41
2023-03-01T14:22:22.020Z,98905.53
2023-03-01T14:24:53.597Z,98906.84
2023-03-01T14:27:20.521Z,98896.94
2023-03-01T14:30:01.460Z,98901.81
2023-03-01T14:32:30.564Z,98907.88
2023-03-01T14:34:59.464Z,98916.78
2023-03-01T14:37:27.477Z,98920.28
2023-03-01T14:39:55.219Z,98926.97
2023-03-01T14:42:23.591Z,98927.91
2023-03-01T14:44:55.178Z,98919.53
2023-03-01T14:47:29.287Z,98928.75
2023-03-01T14:50:23.539Z,98925.81
2023-03-01T14:52:54.044Z,98925.53
2023-03-01T14:55:31.698Z,98918.25
2023-03-01T14:57:58.633Z,98922.88
2023-03-01T15:00:30.575Z,98911.47
2023-03-01T15:03:03.682Z,98914.72
2023-03-01T15:05:34.897Z,98900.66
2023-03-01T15:08:06.864Z,98906.88
2023-03-01T15:10:38.894Z,98902.16
2023-03-01T15:13:22.488Z,98914.25
2023-03-01T15:15:51.130Z,98907.28
2023-03-01T15:18:26.619Z,98900.50
2023-03-01T15:20:53.993Z,98897.84
2023-03-01T15:23:30.337Z,98907.00
2023-03-01T15:25:58.632Z,98908.16
2023-03-01T15:28:32.518Z,98913.13
2023-03-01T15:31:04.283Z,98903.03
2023-03-01T15:33:34.962Z,98908.88
2023-03-01T15:36:22.128Z,98915.72
2023-03-01T15:39:02.628Z,98905.38
2023-03-01T15:41:30.324Z,98905.38
2023-03-01T15:43:57.026Z,98892.78
2023-03-01T15:46:36.515Z,98877.84
2023-03-01T15:49:06.269Z,98886.44
2023-03-01T15:51:37.750Z,98886.94
2023-03-01T15:54:26.019Z,98869.69
2023-03-01T15:56:52.752Z,98868.22
2023-03-01T15:59:20.941Z,98860.00
2023-03-01T16:01:48.707Z,98868.31
2023-03-01T16:04:17.506Z,98865.03
2023-03-01T16:06:45.415Z,98863.72
2023-03-01T16:09:12.449Z,98863.94
2023-03-01T16:11:39.304Z,98866.88
2023-03-01T16:14:06.078Z,98870.09
2023-03-01T16:16:33.030Z,98862.13
2023-03-01T16:19:07.742Z,98861.63
2023-03-01T16:21:34.286Z,98865.31
2023-03-01T16:24:00.908Z,98865.81
2023-03-01T16:26:27.571Z,98863.28
2023-03-01T16:28:58.832Z,98856.69
2023-03-01T16:31:25.941Z,98860.09
2023-03-01T16:33:55.496Z,98874.19
2023-03-01T16:36:23.588Z,98874.06
2023-03-01T16:38:51.076Z,98867.28
2023-03-01T16:41:19.563Z,98870.63
2023-03-01T16:43:52.613Z,98874.59
2023-03-01T16:46:42.968Z,98882.25
2023-03-01T16:49:09.499Z,98887.22
2023-03-01T16:51:39.426Z,98886.38
2023-03-01T16:54:06.669Z,98889.53
2023-03-01T16:56:42.248Z,98898.81
2023-03-01T16:59:09.057Z,98897.50
2023-03-01T17:01:35.967Z,98905.59
2023-03-01T17:04:03.563Z,98910.41
2023-03-01T17:06:33.497Z,98915.84
2023-03-01T17:09:00.372Z,98921.94
2023-03-01T17:11:26.904Z,98925.28
2023-03-01T17:13:56.337Z,98914.63
2023-03-01T17:16:23.482Z,98919.25
2023-03-01T17:18:50.079Z,98928.69
2023-03-01T17:21:17.161Z,98925.50
2023-03-01T17:23:45.543Z,98924.56
2023-03-01T17:26:12.599Z,98933.28
2023-03-01T17:28:40.738Z,98921.84
2023-03-01T17:31:08.871Z,98923.50
2023-03-01T17:33:36.301Z,98927.41
2023-03-01T17:36:04.548Z,98934.97
2023-03-01T17:38:31.469Z,98930.69
2023-03-01T17:41:01.559Z,98937.31
2023-03-01T17:43:28.758Z,98939.03
2023-03-01T17:45:56.600Z,98940.75
2023-03-01T17:48:25.961Z,98945.16
2023-03-01T17:50:58.586Z,98938.44
2023-03-01T17:53:25.430Z,98939.28
2023-03-01T17:58:47.198Z,98934.69
2023-03-01T18:01:19.138Z,98924.53
2023-03-01T18:03:47.697Z,98935.31
2023-03-01T18:06:27.687Z,98927.09
2023-03-01T18:08:56.666Z,98931.72
2023-03-01T18:11:25.020Z,98930.50
2023-03-01T18:13:58.231Z,98927.72
2023-03-01T18:16:25.562Z,98933.91
2023-03-01T18:18:57.985Z,98933.81
2023-03-01T18:21:24.716Z,98931.34
2023-03-01T18:23:51.206Z,98930.13
2023-03-01T18:26:18.045Z,98934.16
2023-03-01T18:28:44.930Z,98935.06
2023-03-01T18:31:11.607Z,98939.28
2023-03-01T18:33:38.829Z,98942.22
2023-03-01T18:36:15.775Z,98946.28
2023-03-01T18:38:42.416Z,98937.81
2023-03-01T18:41:09.172Z,98952.72
2023-03-01T18:43:35.644Z,98944.50
2023-03-01T18:46:03.143Z,98947.72
2023-03-01T18:48:30.313Z,98950.53
2023-03-01T18:50:57.486Z,98951.66
2023-03-01T18:53:25.095Z,98937.63
2023-03-01T18:56:03.045Z,98935.00
2023-03-01T18:58:35.474Z,98938.28
2023-03-01T19:01:02.761Z,98940.69
2023-03-01T19:03:29.467Z,98950.31
2023-03-01T19:05:56.904Z,98943.78
2023-03-01T19:08:23.399Z,98946.69
2023-03-01T19:10:58.022Z,98942.53
2023-03-01T19:13:25.507Z,98945.88
2023-03-01T19:15:55.683Z,98928.94
2023-03-01T19:18:22.308Z,98933.44
2023-03-01T19:20:52.982Z,98939.97
2023-03-01T19:23:24.105Z,98940.56
2023-03-01T19:25:50.600Z,98945.94
2023-03-01T19:28:18.985Z,98946.53
2023-03-01T19:30:45.606Z,98931.22
2023-03-01T19:33:13.469Z,98929.97
2023-03-01T19:35:40.785Z,98929.69
2023-03-01T19:38:07.387Z,98933.25
2023-03-01T19:40:36.080Z,98926.22
2023-03-01T19:43:03.057Z,98919.19
2023-03-01T19:45:33.630Z,98920.69
2023-03-01T19:48:00.655Z,98926.03
2023-03-01T19:50:27.109Z,98925.50
2023-03-01T19:52:54.079Z,98924.56
2023-03-01T19:55:20.731Z,98923.09
2023-03-01T19:57:47.315Z,98925.75
2023-03-01T20:00:14.826Z,98930.78
2023-03-01T20:02:41.675Z,98924.00
2023-03-01T20:05:08.683Z,98933.19
2023-03-01T20:07:35.535Z,98936.78
2023-03-01T20:10:02.414Z,98936.06
2023-03-01T20:12:28.878Z,98938.53
2023-03-01T20:14:55.672Z,98938.13
2023-03-01T20:17:22.791Z,98934.81
2023-03-01T20:19:49.245Z,98928.28
2023-03-01T20:22:17.314Z,98936.34
2023-03-01T20:24:44.069Z,98929.94
2023-03-01T20:27:10.648Z,98929.41
2023-03-01T20:29:37.497Z,98926.03
2023-03-01T20:32:04.253Z,98920.63
2023-03-01T20:34:30.750Z,98925.19
2023-03-01T20:36:57.312Z,98930.38
2023-03-01T20:39:23.959Z,98923.84
2023-03-01T20:41:50.532Z,98922.88
2023-03-01T20:44:16.957Z,98917.72
2023-03-01T20:46:43.485Z,98922.03
2023-03-01T20:49:10.254Z,98921.84
2023-03-01T20:51:39.387Z,98919.50
2023-03-01T20:54:07.262Z,98914.47
2023-03-01T20:56:34.594Z,98918.63
2023-03-01T20:59:03.363Z,98910.31
2023-03-01T21:01:30.569Z,98918.28
2023-03-01T21:03:57.118Z,98915.81
2023-03-01T21:06:23.807Z,98921.34
2023-03-01T21:08:50.576Z,98919.34
2023-03-01T21:11:17.643Z,98921.28
2023-03-01T21:13:44.147Z,98922.06
2023-03-01T21:16:12.974Z,98914.06
2023-03-01T21:18:40.887Z,98918.28
2023-03-01T21:21:09.711Z,98920.91
2023-03-01T21:23:38.817Z,98923.28
2023-03-01T21:26:10.786Z,98920.84
2023-03-01T21:28:38.107Z,98914.69
2023-03-01T21:31:14.885Z,98919.56
2023-03-01T21:33:45.347Z,98914.69
2023-03-01T21:36:12.565Z,98914.06
2023-03-01T21:38:41.538Z,98910.53
2023-03-01T21:41:11.489Z,98918.75
2023-03-01T21:43:39.569Z,98915.34
2023-03-01T21:46:09.550Z,98921.72
2023-03-01T21:48:36.425Z,98913.44
2023-03-01T21:51:04.102Z,98916.91
2023-03-01T21:53:33.006Z,98907.88
2023-03-01T21:56:00.637Z,98906.59
2023-03-01T21:58:28.927Z,98910.97
2023-03-01T22:00:56.383Z,98906.81
2023-03-01T22:03:23.200Z,98913.03
2023-03-01T22:05:57.661Z,98906.81
2023-03-01T22:08:24.389Z,98924.34
2023-03-01T22:10:51.326Z,98907.34
2023-03-01T22:13:18.737Z,98910.31
2023-03-01T22:15:46.060Z,98906.59
2023-03-01T22:18:13.801Z,98911.56
2023-03-01T22:20:41.109Z,98922.97
2023-03-01T22:23:08.232Z,98916.56
2023-03-01T22:25:41.045Z,98917.53
2023-03-01T22:28:07.845Z,98912.00
2023-03-01T22:30:34.259Z,98919.22
2023-03-01T22:33:00.795Z,98927.13
2023-03-01T22:35:27.276Z,98924.13
2023-03-01T22:37:54.017Z,98922.03
2023-03-01T22:40:20.813Z,98927.03
2023-03-01T22:42:47.643Z,98925.66
2023-03-01T22:45:14.058Z,98931.06
2023-03-01T22:47:40.742Z,98929.66
2023-03-01T22:50:08.780Z,98928.84
2023-03-01T22:52:35.180Z,98933.84
2023-03-01T22:55:01.896Z,98932.31
2023-03-01T22:57:28.308Z,98936.50
2023-03-01T22:59:54.887Z,98938.28
2023-03-01T23:02:21.550Z,98937.59
2023-03-01T23:04:48.121Z,98936.75
2023-03-01T23:07:16.054Z,98938.41
2023-03-01T23:09:44.141Z,98935.38
2023-03-01T23:12:10.594Z,98934.94
2023-03-01T23:14:40.556Z,98928.59
2023-03-01T23:17:07.073Z,98937.75
2023-03-01T23:19:33.995Z,98933.31
2023-03-01T23:22:00.595Z,98929.56
2023-03-01T23:24:27.658Z,98931.34
2023-03-01T23:26:54.130Z,98930.66
2023-03-01T23:29:21.888Z,98936.88
2023-03-01T23:31:48.556Z,98940.50
2023-03-01T23:34:15.159Z,98934.97
2023-03-01T23:36:41.666Z,98937.03
2023-03-01T23:39:08.406Z,98942.03
2023-03-01T23:41:35.201Z,98941.88
2023-03-01T23:44:03.606Z,98941.75
2023-03-01T23:46:32.990Z,98946.72
2023-03-01T23:49:01.108Z,98943.69
2023-03-01T23:51:27.904Z,98944.22
2023-03-01T23:53:57.318Z,98941.88
2023-03-01T23:56:27.125Z,98935.38
2023-03-01T23:59:08.258Z,98930.25
